createdAt,value
2018-08-23T00:01:08.495Z,4.53
2018-08-23T00:03:38.189Z,6.87
2018-08-23T00:06:06.307Z,5.40
2018-08-23T00:08:34.428Z,8.07
2018-08-23T00:11:02.544Z,8.23
2018-08-23T00:13:34.914Z,5.53
2018-08-23T00:16:03.039Z,4.90
2018-08-23T00:18:31.162Z,6.87
2018-08-23T00:20:59.307Z,7.10
2018-08-23T00:23:27.431Z,5.80
2018-08-23T00:25:55.539Z,6.70
2018-08-23T00:28:23.672Z,9.43
2018-08-23T00:30:51.820Z,6.67
2018-08-23T00:33:19.934Z,7.17
2018-08-23T00:35:48.062Z,7.27
2018-08-23T00:38:16.845Z,5.33
2018-08-23T00:40:45.324Z,6.40
2018-08-23T00:43:14.544Z,8.27
2018-08-23T00:45:42.632Z,7.43
2018-08-23T00:48:10.799Z,7.47
2018-08-23T00:50:55.032Z,8.47
2018-08-23T00:53:23.216Z,7.53
2018-08-23T00:56:03.569Z,9.17
2018-08-23T00:58:31.668Z,8.90
2018-08-23T01:01:02.807Z,7.07
2018-08-23T01:03:31.184Z,7.50
2018-08-23T01:05:59.300Z,9.23
2018-08-23T01:08:34.145Z,11.13
2018-08-23T01:11:03.164Z,8.20
2018-08-23T01:13:31.335Z,7.63
2018-08-23T01:15:59.442Z,8.60
2018-08-23T01:18:27.562Z,9.10
2018-08-23T01:20:55.695Z,11.03
2018-08-23T01:23:23.818Z,7.37
2018-08-23T01:25:52.209Z,6.93
2018-08-23T01:28:20.335Z,7.50
2018-08-23T01:30:49.081Z,15.80
2018-08-23T01:33:20.329Z,6.93
2018-08-23T01:35:49.623Z,7.53
2018-08-23T01:38:18.039Z,7.70
2018-08-23T01:40:46.495Z,7.60
2018-08-23T01:43:14.716Z,6.30
2018-08-23T01:45:42.832Z,10.00
2018-08-23T01:48:11.431Z,6.40
2018-08-23T01:50:39.625Z,8.70
2018-08-23T01:53:07.757Z,10.67
2018-08-23T01:55:35.871Z,7.60
2018-08-23T01:58:03.996Z,13.97
2018-08-23T02:00:34.348Z,11.80
2018-08-23T02:03:03.073Z,10.90
2018-08-23T02:05:31.162Z,10.30
2018-08-23T02:07:59.616Z,7.23
2018-08-23T02:10:27.713Z,7.60
2018-08-23T02:12:56.977Z,6.67
2018-08-23T02:15:25.088Z,9.87
2018-08-23T02:17:56.312Z,13.20
2018-08-23T02:20:25.487Z,9.60
2018-08-23T02:22:54.186Z,10.70
2018-08-23T02:25:22.273Z,9.13
2018-08-23T02:27:58.152Z,8.67
2018-08-23T02:30:40.822Z,7.03
2018-08-23T02:33:10.029Z,12.30
2018-08-23T02:35:38.287Z,9.60
2018-08-23T02:38:06.727Z,8.17
2018-08-23T02:40:35.112Z,10.07
2018-08-23T02:43:03.298Z,7.20
2018-08-23T02:45:36.103Z,10.67
2018-08-23T02:48:04.607Z,10.77
2018-08-23T02:50:32.700Z,11.17
2018-08-23T02:53:07.089Z,8.17
2018-08-23T02:55:38.868Z,6.43
2018-08-23T02:58:08.192Z,9.00
2018-08-23T03:00:41.920Z,8.83
2018-08-23T03:03:10.013Z,7.80
2018-08-23T03:05:39.327Z,8.90
2018-08-23T03:08:07.463Z,5.67
2018-08-23T03:10:35.944Z,8.53
2018-08-23T03:13:04.087Z,8.50
2018-08-23T03:15:32.210Z,13.83
2018-08-23T03:18:00.312Z,7.40
2018-08-23T03:20:28.438Z,10.13
2018-08-23T03:22:56.970Z,5.97
2018-08-23T03:25:26.020Z,6.40
2018-08-23T03:27:54.760Z,8.60
2018-08-23T03:30:23.443Z,7.50
2018-08-23T03:32:51.578Z,7.43
2018-08-23T03:35:19.701Z,7.20
2018-08-23T03:37:47.815Z,6.67
2018-08-23T03:40:16.873Z,7.57
2018-08-23T03:42:44.980Z,6.67
2018-08-23T03:45:18.632Z,8.00
2018-08-23T03:47:51.311Z,7.70
2018-08-23T03:50:19.496Z,8.07
2018-08-23T03:52:49.823Z,7.23
2018-08-23T03:55:18.872Z,7.13
2018-08-23T03:58:06.731Z,6.87
2018-08-23T04:00:41.312Z,7.63
2018-08-23T04:03:16.743Z,9.13
2018-08-23T04:05:44.883Z,8.87
2018-08-23T04:08:12.961Z,7.33
2018-08-23T04:10:41.051Z,7.60
2018-08-23T04:13:09.150Z,6.00
2018-08-23T04:15:37.267Z,7.47
2018-08-23T04:18:10.953Z,8.90
2018-08-23T04:20:55.151Z,7.90
2018-08-23T04:23:23.256Z,7.33
2018-08-23T04:25:51.377Z,7.00
2018-08-23T04:28:19.484Z,9.60
2018-08-23T04:30:47.599Z,9.73
2018-08-23T04:33:15.724Z,8.83
2018-08-23T04:35:43.872Z,8.27
2018-08-23T04:38:11.995Z,8.90
2018-08-23T04:40:45.453Z,9.60
2018-08-23T04:43:13.588Z,10.23
2018-08-23T04:45:41.676Z,9.07
2018-08-23T04:48:09.799Z,7.53
2018-08-23T04:50:39.071Z,8.13
2018-08-23T04:53:07.202Z,7.83
2018-08-23T04:55:35.368Z,8.23
2018-08-23T04:58:04.124Z,10.60
2018-08-23T05:00:32.496Z,10.33
2018-08-23T05:03:00.635Z,8.53
2018-08-23T05:05:28.787Z,10.43
2018-08-23T05:07:56.896Z,6.87
2018-08-23T05:10:25.002Z,8.23
2018-08-23T05:12:53.126Z,7.90
2018-08-23T05:15:21.220Z,7.80
2018-08-23T05:17:49.343Z,7.73
2018-08-23T05:20:17.443Z,10.13
2018-08-23T05:22:51.790Z,7.03
2018-08-23T05:25:23.024Z,7.90
2018-08-23T05:28:08.138Z,9.17
2018-08-23T05:30:36.231Z,7.43
2018-08-23T05:33:08.579Z,7.90
2018-08-23T05:35:36.667Z,9.83
2018-08-23T05:38:06.413Z,8.57
2018-08-23T05:40:40.125Z,17.53
2018-08-23T05:43:08.244Z,7.70
2018-08-23T05:45:41.708Z,8.83
2018-08-23T05:48:30.680Z,8.23
2018-08-23T05:51:00.822Z,8.80
2018-08-23T05:53:28.928Z,10.80
2018-08-23T05:55:58.406Z,10.33
2018-08-23T05:58:30.791Z,11.13
2018-08-23T06:00:58.921Z,21.37
2018-08-23T06:03:27.069Z,14.80
2018-08-23T06:05:56.331Z,19.23
2018-08-23T06:08:24.523Z,9.17
2018-08-23T06:10:58.133Z,12.20
2018-08-23T06:13:26.273Z,12.67
2018-08-23T06:15:55.583Z,16.03
2018-08-23T06:18:24.498Z,12.57
2018-08-23T06:20:52.603Z,19.13
2018-08-23T06:23:20.838Z,19.13
2018-08-23T06:25:49.433Z,16.97
2018-08-23T06:28:21.412Z,13.67
2018-08-23T06:30:49.598Z,13.37
2018-08-23T06:33:33.532Z,14.90
2018-08-23T06:36:02.004Z,15.93
2018-08-23T06:38:30.688Z,14.73
2018-08-23T06:41:01.112Z,16.33
2018-08-23T06:43:29.372Z,14.43
2018-08-23T06:45:57.896Z,15.83
2018-08-23T06:48:26.018Z,15.57
2018-08-23T06:50:55.185Z,13.97
2018-08-23T06:53:29.287Z,12.90
2018-08-23T06:55:57.443Z,16.00
2018-08-23T06:58:25.584Z,12.53
2018-08-23T07:00:53.713Z,11.63
2018-08-23T07:03:21.880Z,10.23
2018-08-23T07:05:50.032Z,11.37
2018-08-23T07:08:18.146Z,9.40
2018-08-23T07:10:46.307Z,12.00
2018-08-23T07:13:14.420Z,14.70
2018-08-23T07:15:46.994Z,17.93
2018-08-23T07:18:20.317Z,17.60
2018-08-23T07:20:48.449Z,17.43
2018-08-23T07:23:28.553Z,15.90
2018-08-23T07:25:56.686Z,19.70
2018-08-23T07:28:24.795Z,17.67
2018-08-23T07:30:53.853Z,17.10
2018-08-23T07:33:21.991Z,21.03
2018-08-23T07:36:00.140Z,18.10
2018-08-23T07:38:28.266Z,18.17
2018-08-23T07:40:56.402Z,17.43
2018-08-23T07:43:24.506Z,17.93
2018-08-23T07:45:52.642Z,17.83
2018-08-23T07:48:20.772Z,14.20
2018-08-23T07:50:48.914Z,16.23
2018-08-23T07:53:18.460Z,15.43
2018-08-23T07:55:46.471Z,17.33
2018-08-23T07:58:14.721Z,14.27
2018-08-23T08:00:43.823Z,17.43
2018-08-23T08:03:13.189Z,18.10
2018-08-23T08:05:42.593Z,17.07
2018-08-23T08:08:11.790Z,22.20
2018-08-23T08:10:41.605Z,18.93
2018-08-23T08:13:09.735Z,14.90
2018-08-23T08:15:37.888Z,14.83
2018-08-23T08:18:10.730Z,16.97
2018-08-23T08:20:38.864Z,12.67
2018-08-23T08:23:07.120Z,13.37
2018-08-23T08:25:35.271Z,15.07
2018-08-23T08:28:03.365Z,16.10
2018-08-23T08:30:40.333Z,17.93
2018-08-23T08:33:10.144Z,18.13
2018-08-23T08:35:42.000Z,14.07
2018-08-23T08:38:10.418Z,13.00
2018-08-23T08:40:38.614Z,13.10
2018-08-23T08:43:07.284Z,11.20
2018-08-23T08:45:35.468Z,14.50
2018-08-23T08:48:17.214Z,16.53
2018-08-23T08:50:55.949Z,14.77
2018-08-23T08:53:24.091Z,13.17
2018-08-23T08:55:52.216Z,17.50
2018-08-23T08:58:20.377Z,16.43
2018-08-23T09:00:51.083Z,16.57
2018-08-23T09:03:20.290Z,16.40
2018-08-23T09:05:48.446Z,18.77
2018-08-23T09:08:16.556Z,19.30
2018-08-23T09:10:44.672Z,15.00
2018-08-23T09:13:12.796Z,19.77
2018-08-23T09:15:41.619Z,18.23
2018-08-23T09:18:09.728Z,16.70
2018-08-23T09:20:37.938Z,17.43
2018-08-23T09:23:06.128Z,17.30
2018-08-23T09:25:39.805Z,20.10
2018-08-23T09:28:07.917Z,16.40
2018-08-23T09:30:36.061Z,22.60
2018-08-23T09:33:09.241Z,19.23
2018-08-23T09:35:37.360Z,19.67
2018-08-23T09:38:10.822Z,19.10
2018-08-23T09:40:38.936Z,18.37
2018-08-23T09:43:07.154Z,20.67
2018-08-23T09:45:36.069Z,18.20
2018-08-23T09:48:04.249Z,16.23
2018-08-23T09:50:32.424Z,16.47
2018-08-23T09:53:00.525Z,20.20
2018-08-23T09:55:29.791Z,18.50
2018-08-23T09:57:58.060Z,17.00
2018-08-23T10:03:10.974Z,20.43
2018-08-23T10:05:47.672Z,13.50
2018-08-23T10:08:22.113Z,15.27
2018-08-23T10:10:55.709Z,15.10
2018-08-23T10:13:29.168Z,13.87
2018-08-23T10:16:02.637Z,17.53
2018-08-23T10:18:36.177Z,18.70
2018-08-23T10:21:04.590Z,18.20
2018-08-23T10:23:33.410Z,13.23
2018-08-23T10:26:33.432Z,18.37
2018-08-23T10:29:01.566Z,17.10
2018-08-23T10:31:29.670Z,17.20
2018-08-23T10:33:57.849Z,14.87
2018-08-23T10:36:25.980Z,15.20
2018-08-23T10:38:54.145Z,12.30
2018-08-23T10:41:22.265Z,18.57
2018-08-23T10:43:50.422Z,17.70
2018-08-23T10:46:18.561Z,14.03
2018-08-23T10:48:46.753Z,11.90
2018-08-23T10:51:14.888Z,13.07
2018-08-23T10:53:43.444Z,14.17
2018-08-23T10:56:11.568Z,13.70
2018-08-23T10:58:39.734Z,20.03
2018-08-23T11:01:07.852Z,13.40
2018-08-23T11:03:35.990Z,13.60
2018-08-23T11:06:04.162Z,14.07
2018-08-23T11:08:33.796Z,11.40
2018-08-23T11:11:07.316Z,11.70
2018-08-23T11:13:40.705Z,13.00
2018-08-23T11:16:14.309Z,10.57
2018-08-23T11:18:47.793Z,9.80
2018-08-23T11:21:17.029Z,14.50
2018-08-23T11:23:45.792Z,11.73
2018-08-23T11:26:21.356Z,12.10
2018-08-23T11:28:49.968Z,11.20
2018-08-23T11:31:23.488Z,10.47
2018-08-23T11:33:51.916Z,10.63
2018-08-23T11:36:20.029Z,14.97
2018-08-23T11:38:48.284Z,11.20
2018-08-23T11:41:16.430Z,10.43
2018-08-23T11:43:44.533Z,11.53
2018-08-23T11:46:13.231Z,11.20
2018-08-23T11:48:42.449Z,9.90
2018-08-23T11:51:10.886Z,10.27
2018-08-23T11:53:39.246Z,8.93
2018-08-23T11:56:07.438Z,9.90
2018-08-23T11:58:35.549Z,9.30
2018-08-23T12:01:09.648Z,8.87
2018-08-23T12:03:38.199Z,11.23
2018-08-23T12:06:06.895Z,10.80
2018-08-23T12:08:35.105Z,9.10
2018-08-23T12:11:03.252Z,9.50
2018-08-23T12:13:31.412Z,9.17
2018-08-23T12:16:00.071Z,9.03
2018-08-23T12:18:32.780Z,10.17
2018-08-23T12:21:00.890Z,9.00
2018-08-23T12:23:28.993Z,10.30
2018-08-23T12:25:57.212Z,7.27
2018-08-23T12:28:30.609Z,9.90
2018-08-23T12:30:58.751Z,7.50
2018-08-23T12:33:26.873Z,8.20
2018-08-23T12:35:54.993Z,8.03
2018-08-23T12:40:30.776Z,8.30
2018-08-23T12:42:58.987Z,7.40
2018-08-23T12:45:27.126Z,7.20
2018-08-23T12:47:55.271Z,10.40
2018-08-23T12:50:23.424Z,8.43
2018-08-23T12:52:51.628Z,10.97
2018-08-23T12:55:19.734Z,7.60
2018-08-23T12:57:47.852Z,7.70
2018-08-23T13:00:16.008Z,10.23
2018-08-23T13:02:44.268Z,8.23
2018-08-23T13:05:12.290Z,8.53
2018-08-23T13:07:40.425Z,13.07
2018-08-23T13:10:08.537Z,12.67
2018-08-23T13:12:36.692Z,11.10
2018-08-23T13:15:04.815Z,7.03
2018-08-23T13:17:32.960Z,7.73
2018-08-23T13:20:01.065Z,10.37
2018-08-23T13:22:34.573Z,7.33
2018-08-23T13:25:04.699Z,7.43
2018-08-23T13:27:32.960Z,7.37
2018-08-23T13:30:01.780Z,8.17
2018-08-23T13:32:29.965Z,7.60
2018-08-23T13:34:58.712Z,8.80
2018-08-23T13:37:26.997Z,7.60
2018-08-23T13:39:55.673Z,7.20
2018-08-23T13:42:23.813Z,7.17
2018-08-23T13:44:51.928Z,7.30
2018-08-23T13:47:20.108Z,8.10
2018-08-23T13:49:48.992Z,7.40
2018-08-23T13:52:17.112Z,6.27
2018-08-23T13:54:46.390Z,7.93
2018-08-23T13:57:14.516Z,9.70
2018-08-23T13:59:42.779Z,9.43
2018-08-23T14:02:11.115Z,10.53
2018-08-23T14:04:39.257Z,6.83
2018-08-23T14:07:07.407Z,8.37
2018-08-23T14:09:35.590Z,6.90
2018-08-23T14:12:03.699Z,7.13
2018-08-23T14:14:31.807Z,7.43
2018-08-23T14:17:00.362Z,6.83
2018-08-23T14:19:28.484Z,8.30
2018-08-23T14:21:56.592Z,8.17
2018-08-23T14:24:24.696Z,7.43
2018-08-23T14:26:52.809Z,7.47
2018-08-23T14:29:20.908Z,8.43
2018-08-23T14:31:49.012Z,8.20
2018-08-23T14:34:17.116Z,8.67
2018-08-23T14:36:45.256Z,8.40
2018-08-23T14:39:13.372Z,7.70
2018-08-23T14:41:41.476Z,7.77
2018-08-23T14:44:09.931Z,7.40
2018-08-23T14:46:43.795Z,7.87
2018-08-23T14:49:16.024Z,8.03
2018-08-23T14:51:44.204Z,9.23
2018-08-23T14:54:17.548Z,9.90
2018-08-23T14:56:51.104Z,8.17
2018-08-23T14:59:19.215Z,8.70
2018-08-23T15:01:47.365Z,8.60
2018-08-23T15:04:15.493Z,8.00
2018-08-23T15:06:43.614Z,8.30
2018-08-23T15:09:11.806Z,7.77
2018-08-23T15:11:39.943Z,8.70
2018-08-23T15:14:08.284Z,8.30
2018-08-23T15:16:36.348Z,9.77
2018-08-23T15:19:04.484Z,9.33
2018-08-23T15:21:32.613Z,8.30
2018-08-23T15:24:00.740Z,7.90
2018-08-23T15:26:29.041Z,9.43
2018-08-23T15:28:56.980Z,8.30
2018-08-23T15:31:25.128Z,8.37
2018-08-23T15:33:53.342Z,8.90
2018-08-23T15:36:21.451Z,9.53
2018-08-23T15:38:49.581Z,8.60
2018-08-23T15:41:17.719Z,9.93
2018-08-23T15:43:47.694Z,10.20
2018-08-23T15:46:15.907Z,9.20
2018-08-23T15:48:44.058Z,8.77
2018-08-23T15:51:12.185Z,9.60
2018-08-23T15:53:40.302Z,11.17
2018-08-23T15:56:08.452Z,8.23
2018-08-23T15:58:36.516Z,9.63
2018-08-23T16:01:04.625Z,10.00
2018-08-23T16:03:32.781Z,9.70
2018-08-23T16:06:00.885Z,9.63
2018-08-23T16:08:29.008Z,9.40
2018-08-23T16:10:57.124Z,9.30
2018-08-23T16:13:25.225Z,9.83
2018-08-23T16:15:58.982Z,9.57
2018-08-23T16:18:32.400Z,12.23
2018-08-23T16:21:01.248Z,10.77
2018-08-23T16:23:29.363Z,11.67
2018-08-23T16:25:57.460Z,10.47
2018-08-23T16:28:25.562Z,10.60
2018-08-23T16:30:53.678Z,12.83
2018-08-23T16:33:21.782Z,10.43
2018-08-23T16:35:49.895Z,10.60
2018-08-23T16:38:17.989Z,12.20
2018-08-23T16:40:46.105Z,11.83
2018-08-23T16:43:14.220Z,10.80
2018-08-23T16:45:42.341Z,12.00
2018-08-23T16:48:10.444Z,10.30
2018-08-23T16:50:38.550Z,13.57
2018-08-23T16:53:06.695Z,10.50
2018-08-23T16:55:34.753Z,9.33
2018-08-23T16:58:02.883Z,10.37
2018-08-23T17:00:30.988Z,9.67
2018-08-23T17:02:59.095Z,9.30
2018-08-23T17:05:27.244Z,10.00
2018-08-23T17:07:55.385Z,11.97
2018-08-23T17:10:23.521Z,9.73
2018-08-23T17:12:51.645Z,10.30
2018-08-23T17:15:19.759Z,11.13
2018-08-23T17:17:53.427Z,11.70
2018-08-23T17:20:21.540Z,15.23
2018-08-23T17:22:49.663Z,14.10
2018-08-23T17:25:17.873Z,10.17
2018-08-23T17:27:45.957Z,10.40
2018-08-23T17:30:14.053Z,10.17
2018-08-23T17:32:42.171Z,11.63
2018-08-23T17:35:10.295Z,11.47
2018-08-23T17:37:38.409Z,10.70
2018-08-23T17:40:06.520Z,9.73
2018-08-23T17:42:40.075Z,9.17
2018-08-23T17:45:08.212Z,10.23
2018-08-23T17:47:36.349Z,10.17
2018-08-23T17:50:04.484Z,10.60
2018-08-23T17:52:32.608Z,10.70
2018-08-23T17:55:00.720Z,10.80
2018-08-23T17:57:28.857Z,12.00
2018-08-23T17:59:57.000Z,11.63
2018-08-23T18:02:25.119Z,10.80
2018-08-23T18:04:53.332Z,10.27
2018-08-23T18:07:22.289Z,11.17
2018-08-23T18:09:50.438Z,10.03
2018-08-23T18:12:18.572Z,10.63
2018-08-23T18:14:46.706Z,10.30
2018-08-23T18:17:14.851Z,10.97
2018-08-23T18:19:42.961Z,10.23
2018-08-23T18:22:11.096Z,12.03
2018-08-23T18:24:39.252Z,10.13
2018-08-23T18:27:07.366Z,10.47
2018-08-23T18:29:35.519Z,10.77
2018-08-23T18:32:04.694Z,10.03
2018-08-23T18:34:32.805Z,12.77
2018-08-23T18:37:00.993Z,10.80
2018-08-23T18:39:29.116Z,9.70
2018-08-23T18:41:57.225Z,13.60
2018-08-23T18:44:25.360Z,10.53
2018-08-23T18:46:53.480Z,9.83
2018-08-23T18:49:21.617Z,10.90
2018-08-23T18:51:49.845Z,16.10
2018-08-23T18:54:18.021Z,14.67
2018-08-23T18:56:46.145Z,10.63
2018-08-23T18:59:14.360Z,14.30
2018-08-23T19:01:42.501Z,10.30
2018-08-23T19:04:10.761Z,12.93
2018-08-23T19:06:39.028Z,11.23
2018-08-23T19:09:09.964Z,17.73
2018-08-23T19:11:38.119Z,11.77
2018-08-23T19:14:06.311Z,10.33
2018-08-23T19:16:46.600Z,13.87
2018-08-23T19:19:14.762Z,11.10
2018-08-23T19:21:42.939Z,14.20
2018-08-23T19:24:11.068Z,11.10
2018-08-23T19:26:39.219Z,12.60
2018-08-23T19:29:07.391Z,9.17
2018-08-23T19:31:35.561Z,11.70
2018-08-23T19:34:04.028Z,11.00
2018-08-23T19:36:32.156Z,10.13
2018-08-23T19:39:00.284Z,10.60
2018-08-23T19:41:28.391Z,11.20
2018-08-23T19:43:56.525Z,11.03
2018-08-23T19:46:30.356Z,10.60
2018-08-23T19:49:04.186Z,10.37
2018-08-23T19:51:32.345Z,11.13
2018-08-23T19:54:00.466Z,11.87
2018-08-23T19:56:28.577Z,11.30
2018-08-23T19:58:56.713Z,11.43
2018-08-23T20:01:24.829Z,11.57
2018-08-23T20:03:52.945Z,10.87
2018-08-23T20:06:21.118Z,11.10
2018-08-23T20:08:54.984Z,11.00
2018-08-23T20:11:23.084Z,11.20
2018-08-23T20:13:51.260Z,12.43
2018-08-23T20:16:19.375Z,16.83
2018-08-23T20:18:47.484Z,12.20
2018-08-23T20:21:15.608Z,12.50
2018-08-23T20:23:43.745Z,12.33
2018-08-23T20:26:11.832Z,12.93
2018-08-23T20:28:39.974Z,12.80
2018-08-23T20:31:08.160Z,11.00
2018-08-23T20:33:36.272Z,11.17
2018-08-23T20:36:04.379Z,11.80
2018-08-23T20:38:32.731Z,12.97
2018-08-23T20:41:00.840Z,11.93
2018-08-23T20:43:28.949Z,12.20
2018-08-23T20:45:57.060Z,12.40
2018-08-23T20:48:25.168Z,13.37
2018-08-23T20:50:53.376Z,13.47
2018-08-23T20:53:21.472Z,12.13
2018-08-23T20:55:49.576Z,13.60
2018-08-23T20:58:17.862Z,12.77
2018-08-23T21:00:45.977Z,12.87
2018-08-23T21:03:14.071Z,14.00
2018-08-23T21:05:42.196Z,15.40
2018-08-23T21:08:10.397Z,13.80
2018-08-23T21:10:38.540Z,14.77
2018-08-23T21:13:06.666Z,14.27
2018-08-23T21:15:37.509Z,13.40
2018-08-23T21:18:07.832Z,13.77
2018-08-23T21:20:35.958Z,12.40
2018-08-23T21:23:04.265Z,15.87
2018-08-23T21:25:32.396Z,13.80
2018-08-23T21:28:00.529Z,18.93
2018-08-23T21:30:28.688Z,14.30
2018-08-23T21:32:56.800Z,15.23
2018-08-23T21:35:24.926Z,13.57
2018-08-23T21:37:53.124Z,14.93
2018-08-23T21:40:21.253Z,14.73
2018-08-23T21:42:49.370Z,14.07
2018-08-23T21:45:18.584Z,17.03
2018-08-23T21:47:46.688Z,15.57
2018-08-23T21:50:14.904Z,16.80
2018-08-23T21:52:43.088Z,14.60
2018-08-23T21:55:11.232Z,16.30
2018-08-23T21:57:39.368Z,15.30
2018-08-23T22:00:07.752Z,14.83
2018-08-23T22:02:35.893Z,16.53
2018-08-23T22:05:04.088Z,18.10
2018-08-23T22:07:32.202Z,16.97
2018-08-23T22:10:00.485Z,16.37
2018-08-23T22:12:28.560Z,17.10
2018-08-23T22:14:56.685Z,17.30
2018-08-23T22:17:24.812Z,16.90
2018-08-23T22:19:53.337Z,16.40
2018-08-23T22:22:21.467Z,17.23
2018-08-23T22:24:49.598Z,17.03
2018-08-23T22:27:17.816Z,16.53
2018-08-23T22:29:45.976Z,16.87
2018-08-23T22:32:20.429Z,18.53
2018-08-23T22:34:48.552Z,15.60
2018-08-23T22:37:16.711Z,16.03
2018-08-23T22:39:44.842Z,18.63
2018-08-23T22:42:12.969Z,17.67
2018-08-23T22:44:41.085Z,18.30
2018-08-23T22:47:09.221Z,17.13
2018-08-23T22:49:37.371Z,17.33
2018-08-23T22:52:05.455Z,18.83
2018-08-23T22:54:33.563Z,17.27
2018-08-23T22:57:01.684Z,18.20
2018-08-23T22:59:29.801Z,15.40
2018-08-23T23:01:57.937Z,17.37
2018-08-23T23:04:28.179Z,16.90
2018-08-23T23:06:57.076Z,15.90
2018-08-23T23:09:25.204Z,18.63
2018-08-23T23:11:53.331Z,16.23
2018-08-23T23:14:21.444Z,18.27
2018-08-23T23:16:53.472Z,17.60
2018-08-23T23:19:21.972Z,15.87
2018-08-23T23:21:50.089Z,15.27
2018-08-23T23:24:23.677Z,14.00
2018-08-23T23:26:51.825Z,12.30
2018-08-23T23:29:19.948Z,10.70
2018-08-23T23:31:48.072Z,10.20
2018-08-23T23:34:16.287Z,10.13
2018-08-23T23:36:44.418Z,11.33
2018-08-23T23:39:12.520Z,9.30
2018-08-23T23:41:40.644Z,10.10
2018-08-23T23:44:08.743Z,13.47
2018-08-23T23:46:36.868Z,10.37
2018-08-23T23:49:04.964Z,8.00
2018-08-23T23:51:33.084Z,8.70
2018-08-23T23:54:01.189Z,7.97
2018-08-23T23:56:29.345Z,9.00
2018-08-23T23:58:57.427Z,9.37
